createdAt,value
2023-03-26T00:00:04.797Z,690.9231
2023-03-26T00:01:06.431Z,691.1539
2023-03-26T00:02:08.255Z,690.4615
2023-03-26T00:03:09.703Z,687.6923
2023-03-26T00:04:11.468Z,688.8461
2023-03-26T00:05:13.102Z,688.6154
2023-03-26T00:06:14.664Z,691.1539
2023-03-26T00:07:16.403Z,692.7692
2023-03-26T00:08:18.068Z,685.3846
2023-03-26T00:09:19.578Z,680.6923
2023-03-26T00:10:21.365Z,682.1539
2023-03-26T00:11:22.937Z,687.5385
2023-03-26T00:12:24.584Z,687.8461
2023-03-26T00:13:26.231Z,688.9231
2023-03-26T00:14:27.862Z,690.1539
2023-03-26T00:15:29.484Z,693.2308
2023-03-26T00:16:31.197Z,695.4615
2023-03-26T00:17:32.830Z,692.6923
2023-03-26T00:18:34.504Z,690.9231
2023-03-26T00:19:36.090Z,689.6154
2023-03-26T00:20:37.740Z,691.2308
2023-03-26T00:21:39.394Z,695.4615
2023-03-26T00:22:41.109Z,693.5385
2023-03-26T00:23:42.671Z,692.0000
2023-03-26T00:24:44.339Z,697.9231
2023-03-26T00:25:46.771Z,698.3077
2023-03-26T00:26:47.648Z,696.5385
2023-03-26T00:27:49.294Z,695.6923
2023-03-26T00:28:50.953Z,697.1539
2023-03-26T00:29:52.563Z,696.8461
2023-03-26T00:30:54.279Z,696.2308
2023-03-26T00:31:55.871Z,692.3846
2023-03-26T00:32:57.570Z,694.6923
2023-03-26T00:33:59.161Z,693.2308
2023-03-26T00:35:00.845Z,689.0000
2023-03-26T00:36:04.397Z,688.1539
2023-03-26T00:37:04.125Z,691.2308
2023-03-26T00:38:05.776Z,693.2308
2023-03-26T00:39:07.417Z,693.8461
2023-03-26T00:40:09.040Z,692.8461
2023-03-26T00:41:10.712Z,695.1539
2023-03-26T00:42:12.342Z,695.0769
2023-03-26T00:43:14.019Z,694.8461
2023-03-26T00:44:15.643Z,697.4615
2023-03-26T00:45:17.304Z,697.3846
2023-03-26T00:46:18.998Z,696.0000
2023-03-26T00:47:20.761Z,695.1539
2023-03-26T00:48:28.846Z,692.3077
2023-03-26T00:49:23.890Z,692.9231
2023-03-26T00:50:25.529Z,694.1539
2023-03-26T00:51:27.218Z,694.0769
2023-03-26T00:52:28.833Z,696.5385
2023-03-26T00:53:30.667Z,695.0000
2023-03-26T00:54:32.142Z,692.1539
2023-03-26T00:55:33.805Z,694.6923
2023-03-26T00:56:35.476Z,697.2308
2023-03-26T00:57:37.185Z,698.9231
2023-03-26T00:58:38.751Z,695.3846
2023-03-26T00:59:40.403Z,694.6923
2023-03-26T01:00:42.034Z,695.7692
2023-03-26T01:01:43.726Z,695.5385
2023-03-26T01:02:45.435Z,695.4615
2023-03-26T01:04:04.830Z,696.0769
2023-03-26T01:04:48.759Z,695.0000
2023-03-26T01:05:50.303Z,696.4615
2023-03-26T01:06:51.916Z,696.7692
2023-03-26T01:07:53.590Z,699.3846
2023-03-26T01:08:55.251Z,699.6154
2023-03-26T01:09:56.871Z,699.5385
2023-03-26T01:10:58.514Z,699.4615
2023-03-26T01:12:00.181Z,698.3846
2023-03-26T01:13:01.812Z,698.7692
2023-03-26T01:14:03.502Z,699.1539
2023-03-26T01:15:05.124Z,697.6154
2023-03-26T01:16:06.822Z,692.4615
2023-03-26T01:17:08.405Z,695.9231
2023-03-26T01:18:10.092Z,699.2308
2023-03-26T01:19:11.721Z,696.5385
2023-03-26T01:20:13.376Z,695.7692
2023-03-26T01:21:15.000Z,699.0769
2023-03-26T01:22:16.687Z,698.6154
2023-03-26T01:23:18.326Z,696.8461
2023-03-26T01:24:20.001Z,699.5385
2023-03-26T01:25:21.604Z,699.0769
2023-03-26T01:26:23.261Z,698.4615
2023-03-26T01:27:24.902Z,697.0000
2023-03-26T01:28:26.573Z,695.5385
2023-03-26T01:29:28.242Z,702.6154
2023-03-26T01:30:29.869Z,696.2308
2023-03-26T01:31:31.483Z,698.0000
2023-03-26T01:32:33.321Z,700.0000
2023-03-26T01:33:34.855Z,697.1539
2023-03-26T01:34:36.502Z,696.6154
2023-03-26T01:35:38.118Z,698.5385
2023-03-26T01:36:39.765Z,700.7692
2023-03-26T01:37:41.381Z,700.3077
2023-03-26T01:38:43.060Z,697.7692
2023-03-26T01:39:44.713Z,697.6923
2023-03-26T01:40:46.351Z,697.6923
2023-03-26T01:41:47.986Z,696.9231
2023-03-26T01:42:49.661Z,696.8461
2023-03-26T01:43:51.289Z,695.6154
2023-03-26T01:44:52.978Z,695.5385
2023-03-26T01:45:54.738Z,700.5385
2023-03-26T01:46:56.339Z,699.9231
2023-03-26T01:47:57.905Z,701.0769
2023-03-26T01:48:59.532Z,699.0000
2023-03-26T01:50:01.207Z,700.1539
2023-03-26T01:51:02.838Z,699.0000
2023-03-26T01:52:04.470Z,699.7692
2023-03-26T01:53:06.143Z,699.5385
2023-03-26T01:54:07.840Z,695.8461
2023-03-26T01:55:09.533Z,693.5385
2023-03-26T01:56:11.172Z,694.0769
2023-03-26T01:57:12.822Z,692.2308
2023-03-26T01:58:14.439Z,692.3846
2023-03-26T01:59:16.117Z,694.6923
2023-03-26T02:00:17.777Z,693.3077
2023-03-26T02:01:19.481Z,691.7692
2023-03-26T02:02:21.173Z,692.9231
2023-03-26T02:03:22.854Z,694.6154
2023-03-26T02:04:24.362Z,692.7692
2023-03-26T02:05:26.063Z,693.6154
2023-03-26T02:06:27.652Z,696.6154
2023-03-26T02:07:29.328Z,698.1539
2023-03-26T02:08:30.963Z,696.1539
2023-03-26T02:09:32.614Z,697.3077
2023-03-26T02:10:34.270Z,699.6154
2023-03-26T02:11:36.224Z,692.6154
2023-03-26T02:12:37.544Z,694.3846
2023-03-26T02:13:39.217Z,696.9231
2023-03-26T02:14:40.862Z,696.3846
2023-03-26T02:15:42.541Z,700.3846
2023-03-26T02:16:44.166Z,699.6154
2023-03-26T02:17:45.827Z,697.0000
2023-03-26T02:18:47.498Z,694.9231
2023-03-26T02:19:49.125Z,693.0000
2023-03-26T02:20:50.773Z,693.0769
2023-03-26T02:21:52.408Z,694.0000
2023-03-26T02:22:54.043Z,695.7692
2023-03-26T02:23:55.715Z,701.0769
2023-03-26T02:24:57.349Z,701.8461
2023-03-26T02:25:59.043Z,700.6923
2023-03-26T02:27:00.642Z,697.1539
2023-03-26T02:28:02.304Z,695.9231
2023-03-26T02:29:03.941Z,698.3846
2023-03-26T02:30:05.606Z,698.4615
2023-03-26T02:31:07.274Z,697.7692
2023-03-26T02:32:08.909Z,693.6923
2023-03-26T02:33:10.591Z,693.3846
2023-03-26T02:34:12.220Z,692.8461
2023-03-26T02:35:13.894Z,693.0769
2023-03-26T02:36:15.601Z,696.8461
2023-03-26T02:37:17.145Z,696.4615
2023-03-26T02:38:18.775Z,695.0000
2023-03-26T02:39:20.445Z,693.8461
2023-03-26T02:40:22.096Z,695.6154
2023-03-26T02:41:23.749Z,697.0769
2023-03-26T02:42:25.385Z,698.5385
2023-03-26T02:43:27.019Z,698.3077
2023-03-26T02:44:28.680Z,699.0769
2023-03-26T02:45:30.315Z,695.6923
2023-03-26T02:46:32.054Z,695.0000
2023-03-26T02:47:33.692Z,695.3846
2023-03-26T02:48:35.271Z,699.0000
2023-03-26T02:49:36.899Z,700.0000
2023-03-26T02:50:38.578Z,699.0769
2023-03-26T02:51:40.210Z,697.8461
2023-03-26T02:52:41.871Z,698.3846
2023-03-26T02:53:43.496Z,699.9231
2023-03-26T02:54:45.154Z,702.8461
2023-03-26T02:55:46.792Z,700.0769
2023-03-26T02:56:48.505Z,698.8461
2023-03-26T02:57:50.096Z,695.6923
2023-03-26T02:58:51.757Z,697.0769
2023-03-26T02:59:53.391Z,697.8461
2023-03-26T03:00:55.143Z,698.0000
2023-03-26T03:01:56.759Z,697.7692
2023-03-26T03:02:58.443Z,697.0000
2023-03-26T03:03:59.984Z,697.2308
2023-03-26T03:05:01.765Z,696.8461
2023-03-26T03:06:03.269Z,696.5385
2023-03-26T03:07:05.069Z,699.0769
2023-03-26T03:08:06.643Z,697.4615
2023-03-26T03:09:08.284Z,696.5385
2023-03-26T03:10:09.973Z,695.4615
2023-03-26T03:11:11.592Z,699.0769
2023-03-26T03:12:13.299Z,701.7692
2023-03-26T03:13:14.941Z,702.4615
2023-03-26T03:14:16.511Z,701.3846
2023-03-26T03:15:18.247Z,699.4615
2023-03-26T03:16:19.921Z,696.5385
2023-03-26T03:17:21.559Z,697.3077
2023-03-26T03:18:23.194Z,697.3077
2023-03-26T03:19:24.745Z,699.1539
2023-03-26T03:20:26.363Z,698.3846
2023-03-26T03:21:28.037Z,700.8461
2023-03-26T03:22:29.689Z,699.6154
2023-03-26T03:23:31.319Z,695.3846
2023-03-26T03:24:32.961Z,689.6923
2023-03-26T03:25:34.636Z,690.3846
2023-03-26T03:26:36.253Z,690.7692
2023-03-26T03:27:37.949Z,691.3846
2023-03-26T03:28:39.566Z,688.4615
2023-03-26T03:29:41.212Z,689.9231
2023-03-26T03:30:42.897Z,692.4615
2023-03-26T03:31:44.520Z,694.0769
2023-03-26T03:32:46.238Z,694.5385
2023-03-26T03:33:47.819Z,699.9231
2023-03-26T03:34:49.438Z,704.3846
2023-03-26T03:35:51.113Z,701.8461
2023-03-26T03:36:52.726Z,699.8461
2023-03-26T03:37:54.415Z,699.2308
2023-03-26T03:38:56.041Z,696.9231
2023-03-26T03:39:57.694Z,698.4615
2023-03-26T03:40:59.324Z,697.0000
2023-03-26T03:42:00.998Z,695.5385
2023-03-26T03:43:02.665Z,696.3846
2023-03-26T03:44:04.300Z,696.8461
2023-03-26T03:45:05.928Z,697.7692
2023-03-26T03:46:07.639Z,694.2308
2023-03-26T03:47:09.211Z,690.6923
2023-03-26T03:48:10.942Z,693.5385
2023-03-26T03:49:12.526Z,694.3846
2023-03-26T03:50:14.200Z,692.8461
2023-03-26T03:51:15.841Z,694.9231
2023-03-26T03:52:17.487Z,695.2308
2023-03-26T03:53:19.144Z,695.0769
2023-03-26T03:54:20.786Z,696.6154
2023-03-26T03:55:22.409Z,694.7692
2023-03-26T03:56:24.101Z,695.0769
2023-03-26T03:57:25.728Z,690.8461
2023-03-26T03:58:27.424Z,694.5385
2023-03-26T03:59:29.004Z,693.4615
2023-03-26T04:00:30.696Z,693.9231
2023-03-26T04:01:32.304Z,695.9231
2023-03-26T04:02:34.076Z,694.7692
2023-03-26T04:03:35.778Z,692.0769
2023-03-26T04:04:37.331Z,693.3077
2023-03-26T04:05:38.920Z,691.6154
2023-03-26T04:06:40.579Z,693.0000
2023-03-26T04:07:42.206Z,693.0769
2023-03-26T04:08:43.995Z,695.7692
2023-03-26T04:09:45.504Z,696.3077
2023-03-26T04:10:47.163Z,692.1539
2023-03-26T04:11:48.802Z,691.0769
2023-03-26T04:12:50.461Z,692.0000
2023-03-26T04:13:52.113Z,694.2308
2023-03-26T04:14:53.756Z,693.0769
2023-03-26T04:15:55.656Z,692.4615
2023-03-26T04:16:57.061Z,693.5385
2023-03-26T04:17:58.760Z,694.7692
2023-03-26T04:19:00.371Z,696.3846
2023-03-26T04:20:01.983Z,698.3846
2023-03-26T04:21:03.638Z,698.3846
2023-03-26T04:22:05.288Z,693.7692
2023-03-26T04:23:06.948Z,695.0769
2023-03-26T04:24:08.597Z,696.0769
2023-03-26T04:25:10.259Z,691.5385
2023-03-26T04:26:11.867Z,692.6923
2023-03-26T04:27:13.527Z,696.5385
2023-03-26T04:28:15.162Z,698.1539
2023-03-26T04:29:16.844Z,698.3846
2023-03-26T04:30:18.456Z,696.1539
2023-03-26T04:31:20.163Z,694.9231
2023-03-26T04:32:21.773Z,694.1539
2023-03-26T04:33:23.438Z,694.6154
2023-03-26T04:34:25.127Z,694.6923
2023-03-26T04:35:26.763Z,696.0769
2023-03-26T04:36:28.390Z,692.7692
2023-03-26T04:37:30.020Z,691.3077
2023-03-26T04:38:31.645Z,693.1539
2023-03-26T04:39:33.352Z,691.6923
2023-03-26T04:40:34.969Z,693.3077
2023-03-26T04:41:36.630Z,693.5385
2023-03-26T04:42:38.253Z,699.3846
2023-03-26T04:43:39.929Z,698.8461
2023-03-26T04:44:41.638Z,695.8461
2023-03-26T04:45:43.209Z,697.8461
2023-03-26T04:46:44.853Z,694.3077
2023-03-26T04:47:46.802Z,687.4615
2023-03-26T04:48:48.141Z,689.7692
2023-03-26T04:49:49.839Z,691.6154
2023-03-26T04:50:51.448Z,690.4615
2023-03-26T04:51:53.095Z,695.4615
2023-03-26T04:52:54.750Z,698.2308
2023-03-26T04:53:56.418Z,694.0769
2023-03-26T04:54:58.060Z,689.0769
2023-03-26T04:55:59.699Z,690.3077
2023-03-26T04:57:01.343Z,687.6923
2023-03-26T04:58:02.986Z,685.3846
2023-03-26T04:59:04.628Z,688.9231
2023-03-26T05:00:06.317Z,689.3077
2023-03-26T05:01:10.318Z,691.0000
2023-03-26T05:02:09.620Z,690.6923
2023-03-26T05:03:11.218Z,689.6154
2023-03-26T05:04:12.893Z,689.8461
2023-03-26T05:05:14.543Z,689.9231
2023-03-26T05:06:16.195Z,690.6154
2023-03-26T05:07:17.819Z,687.0769
2023-03-26T05:08:19.492Z,687.3846
2023-03-26T05:09:21.126Z,688.9231
2023-03-26T05:10:22.869Z,691.0769
2023-03-26T05:11:24.430Z,690.5385
2023-03-26T05:12:26.100Z,692.9231
2023-03-26T05:13:27.713Z,693.2308
2023-03-26T05:14:29.390Z,690.0769
2023-03-26T05:15:31.053Z,691.3077
2023-03-26T05:16:32.706Z,688.2308
2023-03-26T05:17:34.382Z,684.6154
2023-03-26T05:18:36.015Z,686.8461
2023-03-26T05:19:37.624Z,691.5385
2023-03-26T05:20:39.328Z,692.5385
2023-03-26T05:21:40.933Z,689.3077
2023-03-26T05:22:42.592Z,690.0000
2023-03-26T05:23:44.233Z,692.0769
2023-03-26T05:24:45.911Z,691.5385
2023-03-26T05:25:47.567Z,691.3077
2023-03-26T05:26:49.205Z,692.5385
2023-03-26T05:27:50.820Z,690.6154
2023-03-26T05:28:52.733Z,689.1539
2023-03-26T05:29:54.109Z,686.5385
2023-03-26T05:30:55.984Z,684.2308
2023-03-26T05:31:57.432Z,682.3077
2023-03-26T05:32:59.125Z,686.3077
2023-03-26T05:34:00.861Z,690.3077
2023-03-26T05:35:02.352Z,690.6923
2023-03-26T05:36:04.081Z,690.4615
2023-03-26T05:37:05.667Z,689.9231
2023-03-26T05:38:07.317Z,693.1539
2023-03-26T05:39:08.947Z,692.9231
2023-03-26T05:40:10.640Z,699.3077
2023-03-26T05:41:12.285Z,697.1539
2023-03-26T05:42:13.922Z,688.9231
2023-03-26T05:43:15.549Z,687.8461
2023-03-26T05:44:17.234Z,687.4615
2023-03-26T05:45:18.853Z,689.6923
2023-03-26T05:46:20.653Z,693.6154
2023-03-26T05:47:22.143Z,692.4615
2023-03-26T05:48:23.828Z,689.6154
2023-03-26T05:49:25.460Z,690.5385
2023-03-26T05:50:27.129Z,688.1539
2023-03-26T05:51:28.775Z,689.2308
2023-03-26T05:52:30.430Z,687.9231
2023-03-26T05:53:32.066Z,687.0769
2023-03-26T05:54:33.740Z,686.0000
2023-03-26T05:55:35.365Z,683.6923
2023-03-26T05:56:37.175Z,685.0769
2023-03-26T05:57:38.734Z,686.5385
2023-03-26T05:58:40.413Z,688.9231
2023-03-26T05:59:42.029Z,689.0000
2023-03-26T06:00:43.705Z,687.3077
2023-03-26T06:01:45.362Z,686.8461
2023-03-26T06:02:47.091Z,689.3077
2023-03-26T06:03:48.707Z,686.3077
2023-03-26T06:04:50.349Z,683.3846
2023-03-26T06:05:51.933Z,684.0000
2023-03-26T06:06:53.634Z,685.1539
2023-03-26T06:07:55.224Z,683.0769
2023-03-26T06:09:01.910Z,682.1539
2023-03-26T06:09:58.533Z,684.1539
2023-03-26T06:11:00.221Z,684.0769
2023-03-26T06:12:01.874Z,684.7692
2023-03-26T06:13:03.513Z,688.1539
2023-03-26T06:14:05.126Z,688.6154
2023-03-26T06:15:06.807Z,688.3846
2023-03-26T06:16:08.459Z,688.9231
2023-03-26T06:17:10.180Z,688.8461
2023-03-26T06:18:11.791Z,689.4615
2023-03-26T06:19:13.519Z,661.6923
2023-03-26T06:20:15.037Z,575.2308
2023-03-26T06:21:16.704Z,497.3846
2023-03-26T06:22:18.358Z,469.6923
2023-03-26T06:23:19.996Z,458.8462
2023-03-26T06:24:21.630Z,458.1538
2023-03-26T06:25:23.295Z,452.0769
2023-03-26T06:26:24.936Z,441.6923
2023-03-26T06:27:26.625Z,434.6923
2023-03-26T06:28:28.244Z,436.1538
2023-03-26T06:29:29.918Z,433.3846
2023-03-26T06:30:31.551Z,434.2308
2023-03-26T06:31:33.257Z,451.1538
2023-03-26T06:32:34.913Z,449.6154
2023-03-26T06:33:36.517Z,464.3077
2023-03-26T06:34:38.146Z,515.7692
2023-03-26T06:35:39.855Z,543.7692
2023-03-26T06:36:41.465Z,552.2308
2023-03-26T06:37:43.146Z,534.4615
2023-03-26T06:38:44.770Z,533.3846
2023-03-26T06:39:46.429Z,531.3077
2023-03-26T06:40:48.069Z,533.1539
2023-03-26T06:41:49.730Z,538.0769
2023-03-26T06:43:08.643Z,541.6923
2023-03-26T06:43:53.048Z,544.6923
2023-03-26T06:44:54.669Z,561.7692
2023-03-26T06:45:56.357Z,643.4615
2023-03-26T06:46:58.046Z,755.7692
2023-03-26T06:47:59.734Z,768.4615
2023-03-26T06:49:01.283Z,763.8461
2023-03-26T06:50:02.977Z,731.2308
2023-03-26T06:51:04.608Z,703.8461
2023-03-26T06:52:06.274Z,703.0000
2023-03-26T06:53:07.913Z,697.6923
2023-03-26T06:54:09.563Z,688.3077
2023-03-26T06:55:11.220Z,667.0769
2023-03-26T06:56:12.873Z,648.0769
2023-03-26T06:57:14.527Z,636.2308
2023-03-26T06:58:16.210Z,632.2308
2023-03-26T06:59:17.846Z,632.7692
2023-03-26T07:00:19.485Z,634.0769
2023-03-26T07:01:21.165Z,640.9231
2023-03-26T07:02:22.819Z,650.0769
2023-03-26T07:03:24.433Z,653.3077
2023-03-26T07:04:26.110Z,658.6154
2023-03-26T07:05:27.781Z,669.7692
2023-03-26T07:06:29.391Z,677.0000
2023-03-26T07:07:31.047Z,686.4615
2023-03-26T07:08:32.720Z,696.5385
2023-03-26T07:09:34.360Z,699.5385
2023-03-26T07:10:35.987Z,706.3846
2023-03-26T07:11:37.656Z,717.5385
2023-03-26T07:12:39.292Z,730.0769
2023-03-26T07:13:40.978Z,744.7692
2023-03-26T07:14:42.601Z,760.3846
2023-03-26T07:15:44.282Z,762.4615
2023-03-26T07:16:45.903Z,778.6154
2023-03-26T07:17:47.577Z,804.5385
2023-03-26T07:18:49.452Z,836.3077
2023-03-26T07:19:50.874Z,859.3846
2023-03-26T07:20:52.605Z,879.4615
2023-03-26T07:21:54.177Z,892.6154
2023-03-26T07:22:55.801Z,898.0769
2023-03-26T07:23:57.493Z,909.3077
2023-03-26T07:24:59.111Z,924.8461
2023-03-26T07:26:00.786Z,940.3077
2023-03-26T07:27:02.429Z,953.6154
2023-03-26T07:28:04.088Z,963.0000
2023-03-26T07:29:05.728Z,972.3846
2023-03-26T07:30:07.396Z,1022.9231
2023-03-26T07:31:09.015Z,1119.3846
2023-03-26T07:32:10.680Z,1189.3077
2023-03-26T07:33:12.314Z,1238.6154
2023-03-26T07:34:14.011Z,1260.3846
2023-03-26T07:35:15.629Z,1265.9231
2023-03-26T07:36:17.304Z,1271.0769
2023-03-26T07:37:18.925Z,1285.8462
2023-03-26T07:38:20.592Z,1294.4615
2023-03-26T07:39:22.250Z,1275.3846
2023-03-26T07:40:23.900Z,1250.1538
2023-03-26T07:41:25.537Z,1237.2307
2023-03-26T07:42:27.223Z,1232.8462
2023-03-26T07:43:28.852Z,1230.0769
2023-03-26T07:44:30.525Z,1233.7693
2023-03-26T07:45:32.165Z,1236.2307
2023-03-26T07:46:33.800Z,1236.2307
2023-03-26T07:47:35.478Z,1242.4615
2023-03-26T07:48:37.104Z,1252.4615
2023-03-26T07:49:38.758Z,1259.1538
2023-03-26T07:50:40.410Z,1266.7693
2023-03-26T07:51:42.048Z,1276.6154
2023-03-26T07:52:43.708Z,1290.0769
2023-03-26T07:53:45.341Z,1317.1538
2023-03-26T07:54:47.048Z,1360.6154
2023-03-26T07:55:48.663Z,1413.1538
2023-03-26T07:56:50.386Z,1451.1538
2023-03-26T07:57:51.936Z,1456.9231
2023-03-26T07:58:53.615Z,1487.3077
2023-03-26T07:59:55.266Z,1536.6154
2023-03-26T08:00:57.125Z,1539.4615
2023-03-26T08:01:58.543Z,1551.2307
2023-03-26T08:03:00.286Z,1583.4615
2023-03-26T08:04:23.424Z,1551.3846
2023-03-26T08:05:03.597Z,1475.7693
2023-03-26T08:06:05.134Z,1434.5385
2023-03-26T08:07:06.803Z,1408.6923
2023-03-26T08:08:08.443Z,1390.3077
2023-03-26T08:09:10.109Z,1376.1538
2023-03-26T08:10:12.016Z,1366.3846
2023-03-26T08:11:13.422Z,1361.6923
2023-03-26T08:12:15.039Z,1359.5385
2023-03-26T08:13:16.732Z,1367.9231
2023-03-26T08:14:18.336Z,1374.4615
2023-03-26T08:15:20.037Z,1378.6154
2023-03-26T08:16:21.666Z,1388.5385
2023-03-26T08:17:23.346Z,1395.0769
2023-03-26T08:18:24.942Z,1407.8462
2023-03-26T08:19:26.612Z,1427.7693
2023-03-26T08:20:28.339Z,1420.8462
2023-03-26T08:21:29.918Z,1416.9231
2023-03-26T08:22:31.591Z,1412.5385
2023-03-26T08:23:33.220Z,1407.7693
2023-03-26T08:24:34.893Z,1405.3077
2023-03-26T08:25:38.001Z,1397.6154
2023-03-26T08:26:38.146Z,1392.3846
2023-03-26T08:27:39.809Z,1391.4615
2023-03-26T08:28:41.471Z,1398.8462
2023-03-26T08:29:43.133Z,1402.8462
2023-03-26T08:30:44.812Z,1392.7693
2023-03-26T08:31:46.411Z,1383.8462
2023-03-26T08:32:48.132Z,1375.4615
2023-03-26T08:33:49.731Z,1370.7693
2023-03-26T08:34:51.402Z,1363.1538
2023-03-26T08:35:53.132Z,1359.3846
2023-03-26T08:36:54.721Z,1355.9231
2023-03-26T08:37:56.332Z,1357.7693
2023-03-26T08:38:58.001Z,1359.6923
2023-03-26T08:39:59.643Z,1359.0769
2023-03-26T08:41:01.332Z,1356.3077
2023-03-26T08:42:02.931Z,1358.9231
2023-03-26T08:43:04.602Z,1355.4615
2023-03-26T08:44:06.260Z,1349.3846
2023-03-26T08:45:07.927Z,1349.3846
2023-03-26T08:46:09.597Z,1346.7693
2023-03-26T08:47:11.204Z,1346.3846
2023-03-26T08:48:12.844Z,1345.0769
2023-03-26T08:49:14.501Z,1343.9231
2023-03-26T08:50:16.238Z,1341.6923
2023-03-26T08:51:17.836Z,1343.1538
2023-03-26T08:52:19.446Z,1343.6923
2023-03-26T08:53:21.116Z,1344.4615
2023-03-26T08:54:22.750Z,1343.9231
2023-03-26T08:55:24.423Z,1342.6923
2023-03-26T08:56:26.098Z,1341.4615
2023-03-26T08:57:27.716Z,1343.2307
2023-03-26T08:58:29.352Z,1337.8462
2023-03-26T08:59:31.029Z,1336.7693
2023-03-26T09:00:32.663Z,1339.1538
2023-03-26T09:01:34.393Z,1335.3077
2023-03-26T09:02:36.030Z,1330.6154
2023-03-26T09:03:37.625Z,1326.9231
2023-03-26T09:04:39.272Z,1325.3846
2023-03-26T09:05:40.958Z,1323.9231
2023-03-26T09:06:42.646Z,1321.9231
2023-03-26T09:07:44.293Z,1313.6923
2023-03-26T09:08:54.212Z,1314.3077
2023-03-26T09:09:47.505Z,1314.1538
2023-03-26T09:10:49.154Z,1313.1538
2023-03-26T09:11:50.823Z,1310.3846
2023-03-26T09:12:52.440Z,1308.4615
2023-03-26T09:13:54.132Z,1310.1538
2023-03-26T09:14:55.757Z,1307.7693
2023-03-26T09:15:57.511Z,1304.9231
2023-03-26T09:16:59.080Z,1302.0000
2023-03-26T09:18:00.762Z,1296.4615
2023-03-26T09:19:02.345Z,1298.0000
2023-03-26T09:20:04.026Z,1299.0769
2023-03-26T09:21:05.673Z,1296.3846
2023-03-26T09:22:07.380Z,1293.1538
2023-03-26T09:23:08.960Z,1294.3846
2023-03-26T09:24:10.624Z,1292.5385
2023-03-26T09:25:12.276Z,1289.7693
2023-03-26T09:26:13.929Z,1288.6923
2023-03-26T09:27:15.589Z,1284.4615
2023-03-26T09:28:17.225Z,1284.0000
2023-03-26T09:29:18.855Z,1285.2307
2023-03-26T09:30:20.505Z,1284.0769
2023-03-26T09:31:22.202Z,1281.3846
2023-03-26T09:32:23.942Z,1280.3846
2023-03-26T09:33:25.477Z,1282.8462
2023-03-26T09:34:27.144Z,1280.0000
2023-03-26T09:35:28.764Z,1277.6923
2023-03-26T09:36:30.472Z,1276.1538
2023-03-26T09:37:32.083Z,1274.3846
2023-03-26T09:38:33.741Z,1277.6154
2023-03-26T09:39:35.363Z,1274.2307
2023-03-26T09:40:37.035Z,1272.3077
2023-03-26T09:41:38.658Z,1278.6923
2023-03-26T09:42:40.359Z,1315.1538
2023-03-26T09:43:41.996Z,1248.3846
2023-03-26T09:44:43.628Z,1122.6923
2023-03-26T09:45:45.275Z,1222.9231
2023-03-26T09:46:46.936Z,1253.0000
2023-03-26T09:47:48.648Z,1251.3846
2023-03-26T09:48:50.237Z,1235.6154
2023-03-26T09:49:51.865Z,1220.1538
2023-03-26T09:50:53.719Z,1220.4615
2023-03-26T09:51:55.146Z,1224.8462
2023-03-26T09:52:56.845Z,1236.6154
2023-03-26T09:53:58.447Z,1230.0769
2023-03-26T09:55:00.162Z,1230.2307
2023-03-26T09:56:01.772Z,1232.3077
2023-03-26T09:57:03.465Z,1236.0769
2023-03-26T09:58:05.134Z,1244.1538
2023-03-26T09:59:06.854Z,1246.0000
2023-03-26T10:00:08.423Z,1249.2307
2023-03-26T10:01:10.144Z,1247.6923
2023-03-26T10:02:11.717Z,1256.8462
2023-03-26T10:03:13.465Z,1142.0769
2023-03-26T10:04:15.024Z,811.0769
2023-03-26T10:05:16.690Z,628.0769
2023-03-26T10:06:18.313Z,555.5385
2023-03-26T10:07:19.984Z,524.4615
2023-03-26T10:08:21.641Z,513.0000
2023-03-26T10:09:23.290Z,510.7692
2023-03-26T10:10:24.906Z,517.5385
2023-03-26T10:11:26.588Z,521.0000
2023-03-26T10:12:28.222Z,525.5385
2023-03-26T10:13:29.928Z,532.4615
2023-03-26T10:14:31.532Z,541.7692
2023-03-26T10:15:33.198Z,548.5385
2023-03-26T10:16:34.880Z,551.6923
2023-03-26T10:17:37.179Z,548.6923
2023-03-26T10:18:38.166Z,551.8461
2023-03-26T10:19:39.808Z,561.0769
2023-03-26T10:20:41.434Z,563.2308
2023-03-26T10:21:43.096Z,562.7692
2023-03-26T10:22:44.742Z,569.3846
2023-03-26T10:23:46.425Z,568.7692
2023-03-26T10:24:48.044Z,566.6154
2023-03-26T10:25:49.745Z,568.6154
2023-03-26T10:27:08.589Z,570.8461
2023-03-26T10:27:53.014Z,572.3077
2023-03-26T10:28:54.677Z,579.0769
2023-03-26T10:29:56.325Z,584.5385
2023-03-26T10:30:58.118Z,582.5385
2023-03-26T10:31:59.616Z,583.7692
2023-03-26T10:33:01.324Z,595.2308
2023-03-26T10:34:02.959Z,595.7692
2023-03-26T10:35:04.555Z,594.6154
2023-03-26T10:36:06.251Z,595.3077
2023-03-26T10:37:07.851Z,596.2308
2023-03-26T10:38:09.527Z,599.4615
2023-03-26T10:39:11.183Z,606.4615
2023-03-26T10:40:12.830Z,610.6154
2023-03-26T10:41:14.491Z,611.4615
2023-03-26T10:42:16.123Z,610.3077
2023-03-26T10:43:17.763Z,614.3846
2023-03-26T10:44:19.508Z,614.8461
2023-03-26T10:45:21.096Z,615.3077
2023-03-26T10:46:22.772Z,617.2308
2023-03-26T10:47:24.432Z,619.6154
2023-03-26T10:48:26.054Z,621.1539
2023-03-26T10:49:27.750Z,621.5385
2023-03-26T10:50:29.362Z,621.7692
2023-03-26T10:51:30.972Z,632.5385
2023-03-26T10:52:32.670Z,633.6154
2023-03-26T10:53:34.295Z,635.9231
2023-03-26T10:54:35.999Z,637.3846
2023-03-26T10:55:37.596Z,642.3077
2023-03-26T10:56:39.290Z,642.8461
2023-03-26T10:57:40.896Z,643.1539
2023-03-26T10:58:48.590Z,652.2308
2023-03-26T10:59:44.247Z,654.8461
2023-03-26T11:00:45.892Z,660.6154
2023-03-26T11:01:47.524Z,657.6923
2023-03-26T11:02:49.225Z,659.3846
2023-03-26T11:03:50.827Z,660.2308
2023-03-26T11:04:52.517Z,663.0000
2023-03-26T11:05:54.191Z,666.1539
2023-03-26T11:06:55.800Z,670.8461
2023-03-26T11:07:57.430Z,689.4615
2023-03-26T11:08:59.136Z,718.2308
2023-03-26T11:10:00.746Z,741.2308
2023-03-26T11:11:02.395Z,787.6154
2023-03-26T11:12:26.223Z,852.4615
2023-03-26T11:13:05.691Z,906.0769
2023-03-26T11:14:07.339Z,932.6923
2023-03-26T11:15:09.106Z,911.8461
2023-03-26T11:16:10.642Z,899.3846
2023-03-26T11:17:14.915Z,922.6154
2023-03-26T11:18:13.963Z,947.4615
2023-03-26T11:19:15.591Z,946.0000
2023-03-26T11:20:17.292Z,964.6923
2023-03-26T11:21:20.635Z,947.9231
2023-03-26T11:22:20.527Z,921.5385
2023-03-26T11:23:22.211Z,908.3846
2023-03-26T11:24:23.812Z,890.4615
2023-03-26T11:25:25.532Z,876.3846
2023-03-26T11:26:27.137Z,862.8461
2023-03-26T11:27:28.792Z,862.1539
2023-03-26T11:28:30.446Z,904.0000
2023-03-26T11:29:33.494Z,976.0000
2023-03-26T11:30:33.767Z,1015.7692
2023-03-26T11:31:35.433Z,1011.6923
2023-03-26T11:32:37.070Z,996.7692
2023-03-26T11:33:38.689Z,978.3077
2023-03-26T11:34:40.347Z,947.4615
2023-03-26T11:35:42.013Z,943.5385
2023-03-26T11:36:43.630Z,942.1539
2023-03-26T11:37:45.308Z,938.3846
2023-03-26T11:38:46.965Z,939.9231
2023-03-26T11:39:48.584Z,942.4615
2023-03-26T11:40:50.249Z,951.5385
2023-03-26T11:41:51.901Z,997.4615
2023-03-26T11:42:53.540Z,1018.6923
2023-03-26T11:43:55.217Z,1022.0000
2023-03-26T11:44:56.861Z,1020.3077
2023-03-26T11:45:58.550Z,1018.3077
2023-03-26T11:47:00.126Z,1012.9231
2023-03-26T11:48:01.854Z,1014.0769
2023-03-26T11:49:03.407Z,1017.9231
2023-03-26T11:50:05.143Z,1022.6154
2023-03-26T11:51:06.783Z,1030.7693
2023-03-26T11:52:08.393Z,1035.2307
2023-03-26T11:53:10.039Z,1045.6923
2023-03-26T11:54:11.714Z,1044.2307
2023-03-26T11:55:13.343Z,1043.9231
2023-03-26T11:56:15.174Z,1045.8462
2023-03-26T11:57:16.694Z,1038.7693
2023-03-26T11:58:18.307Z,1036.6154